Latest Weather Observations for Urandangi

IDQ60801

Issued at 8:22 pm EST Friday 26 February 2021 (issued every 10 minutes, with the page automatically refreshed every 10 minutes)

About weather observations | Map of weather stations | Latest weather observations for QLD | Other Formats
Station Details ID: 037058 Name: URANDANGI AERODROME Lat: -21.60 Lon: 138.37 Height: 178.6 m
Data from the previous 72 hours. | See also: Recent months at Urandangi
Date/Time
EST
Temp
°C
App
Temp
°C
Dew
Point
°C
Rel
Hum
%
Delta-T
°C
Wind Press
QNH
hPa
Press
MSL
hPa
Rain since
9am
mm
Dir  Spd
km/h
Gust
km/h
Spd
kts
Gust
kts
26/08:00pm 29.6 25.6 -8.1 8 15.8 S 6 7 3 4 1006.5 1005.1 0.0
26/07:30pm 31.3 27.0 -8.6 7 16.7 S 7 9 4 5 1005.9 1004.6 0.0
26/07:00pm 33.9 29.6 -8.7 6 18.3 S 7 9 4 5 1005.5 1004.2 0.0
26/06:30pm 35.3 30.7 -7.7 6 18.9 SSW 9 13 5 7 1005.2 1003.9 0.0
26/06:00pm 35.7 31.5 -7.4 6 19.2 SSW 7 15 4 8 1005.2 1003.9 0.0
26/05:30pm 35.8 30.1 -7.3 6 19.2 SSW 15 26 8 14 1005.2 1003.9 0.0
26/05:00pm 36.4 31.7 -9.2 5 19.8 SSW 9 17 5 9 1005.0 1003.7 0.0
26/04:30pm 36.5 32.0 -6.8 6 19.5 WNW 9 17 5 9 1005.1 1003.8 0.0
26/04:00pm 36.6 32.5 -6.8 6 19.6 SW 7 17 4 9 1005.2 1003.9 0.0
26/03:30pm 36.0 31.8 -7.2 6 19.3 SSE 7 17 4 9 1005.5 1004.2 0.0
26/03:00pm 35.7 31.5 -7.4 6 19.2 N 7 13 4 7 1005.7 1004.4 0.0
26/02:30pm 35.2 30.6 -7.7 6 18.9 E 9 19 5 10 1006.0 1004.7 0.0
26/02:00pm 35.1 30.1 -7.8 6 18.9 SE 11 20 6 11 1006.6 1005.2 0.0
26/01:30pm 35.0 29.3 -7.9 6 18.8 S 15 24 8 13 1007.0 1005.6 0.0
26/01:00pm 34.3 28.1 -8.4 6 18.5 ESE 17 39 9 21 1007.4 1006.0 0.0
26/12:30pm 34.4 28.4 -6.3 7 18.2 SSE 17 26 9 14 1007.9 1006.5 0.0
26/12:00pm 33.8 27.2 -6.8 7 18.0 S 20 37 11 20 1008.2 1006.9 0.0
26/11:30am 33.2 26.6 -7.2 7 17.6 SSE 20 30 11 16 1008.6 1007.3 0.0
26/11:00am 32.0 24.9 -8.1 7 17.1 SE 22 32 12 17 1009.0 1007.7 0.0
26/10:30am 31.4 24.4 -6.8 8 16.5 SE 22 32 12 17 1009.4 1008.1 0.0
26/10:00am 30.3 23.0 -6.1 9 15.8 SE 24 30 13 16 1009.5 1008.2 0.0
26/09:30am 28.5 21.2 -6.0 10 14.8 SE 24 33 13 18 1009.6 1008.3 0.0
26/09:00am 26.5 19.7 -5.2 12 13.6 SE 22 30 12 16 1009.7 1008.4 0.0
26/08:30am 24.4 18.7 -3.9 15 12.1 SE 17 22 9 12 1009.6 1008.3 0.0
26/08:00am 21.7 17.9 -3.6 18 10.7 SSE 7 11 4 6 1009.5 1008.2 0.0
26/07:30am 17.8 14.9 -4.2 22 8.8 S 2 4 1 2 1009.2 1007.9 0.0
26/07:00am 15.5 12.2 -4.4 25 7.8 S 4 4 2 2 1009.0 1007.7 0.0
26/06:30am 15.8 12.4 -5.3 23 8.1 SSE 4 4 2 2 1008.8 1007.5 0.0
26/06:00am 16.9 13.0 -4.9 22 8.6 SSE 7 7 4 4 1008.5 1007.2 0.0
26/05:30am 18.2 14.3 -5.1 20 9.2 S 7 9 4 5 1008.4 1007.1 0.0
26/05:00am 19.1 14.8 -5.0 19 9.7 S 9 9 5 5 1008.1 1006.8 0.0
26/04:30am 20.0 15.2 -5.8 17 10.2 S 11 13 6 7 1008.1 1006.8 0.0
26/04:00am 20.1 15.3 -5.7 17 10.3 S 11 15 6 8 1007.8 1006.4 0.0
26/03:30am 19.7 15.7 -6.0 17 10.1 S 7 11 4 6 1007.8 1006.4 0.0
26/03:00am 19.9 15.8 -6.6 16 10.4 S 7 9 4 5 1007.9 1006.5 0.0
26/02:30am 20.6 16.5 -6.9 15 10.7 S 7 9 4 5 1008.0 1006.7 0.0
26/02:00am 21.8 17.7 -6.8 14 11.4 S 7 11 4 6 1008.2 1006.9 0.0
26/01:30am 23.7 18.4 -7.4 12 12.4 S 13 20 7 11 1008.3 1007.0 0.0
26/01:00am 24.5 18.8 -7.9 11 12.9 SSE 15 20 8 11 1008.5 1007.2 0.0
26/12:30am 25.1 19.4 -7.4 11 13.1 S 15 19 8 10 1008.6 1007.3 0.0
26/12:00am 24.9 19.6 -7.5 11 13.1 SSE 13 17 7 9 1008.7 1007.4 0.0
 
Date/Time
EST
Temp
°C
App
Temp
°C
Dew
Point
°C
Rel
Hum
%
Delta-T
°C
Wind Press
QNH
hPa
Press
MSL
hPa
Rain since
9am
mm
Dir  Spd
km/h
Gust
km/h
Spd
kts
Gust
kts
25/11:30pm 25.6 20.2 -8.2 10 13.5 SSE 13 17 7 9 1008.7 1007.4 0.0
25/11:00pm 26.0 20.6 -7.9 10 13.7 S 13 17 7 9 1008.7 1007.4 0.0
25/10:30pm 26.4 21.5 -7.6 10 13.9 S 11 15 6 8 1008.7 1007.4 0.0
25/10:00pm 26.7 21.8 -7.4 10 14.0 S 11 13 6 7 1008.5 1007.2 0.0
25/09:30pm 25.9 20.9 -8.0 10 13.7 S 11 13 6 7 1008.1 1006.8 0.0
25/09:00pm 26.4 21.8 -7.6 10 13.9 S 9 9 5 5 1008.0 1006.7 0.0
25/08:30pm 27.8 22.8 -7.9 9 14.7 S 11 15 6 8 1007.6 1006.2 0.0
25/08:00pm 28.3 23.2 -9.1 8 15.2 SSW 11 11 6 6 1007.4 1006.0 0.0
25/07:30pm 31.1 26.1 -8.7 7 16.6 S 11 13 6 7 1006.9 1005.5 0.0
25/07:00pm 32.8 27.7 -9.4 6 17.7 SSE 11 17 6 9 1006.6 1005.2 0.0
25/06:30pm 33.9 27.7 -8.7 6 18.2 SSE 17 24 9 13 1006.5 1005.1 0.0
25/06:00pm 34.6 28.5 -8.2 6 18.6 S 17 26 9 14 1006.4 1005.0 0.0
25/05:30pm 35.1 29.2 -10.1 5 19.1 S 15 22 8 12 1006.2 1004.8 0.0
25/05:00pm 35.6 29.9 -7.5 6 19.1 SSE 15 24 8 13 1006.2 1004.8 0.0
25/04:30pm 35.7 29.2 -7.4 6 19.1 SSE 19 32 10 17 1006.0 1004.7 0.0
25/04:00pm 35.3 29.2 -7.7 6 19.0 SSE 17 30 9 16 1006.3 1004.9 0.0
25/03:30pm 34.8 28.3 -8.0 6 18.7 SE 19 32 10 17 1006.6 1005.2 0.0
25/03:00pm 34.7 28.2 -8.1 6 18.7 SSE 19 30 10 16 1006.9 1005.5 0.0
25/02:30pm 34.3 28.9 -8.4 6 18.4 S 13 26 7 14 1007.3 1005.9 0.0
25/02:00pm 34.5 28.7 -8.2 6 18.6 S 15 28 8 15 1007.8 1006.4 0.0
25/01:30pm 34.6 29.8 -6.2 7 18.3 SSE 11 24 6 13 1008.3 1007.0 0.0
25/01:00pm 34.2 28.2 -6.5 7 18.2 S 17 26 9 14 1008.6 1007.3 0.0
25/12:30pm 34.3 27.8 -6.4 7 18.2 S 20 28 11 15 1009.2 1007.9 0.0
25/12:00pm 32.7 26.6 -7.6 7 17.4 SSE 17 26 9 14 1009.8 1008.5 0.0
25/11:30am 33.0 26.5 -5.6 8 17.3 SSE 20 39 11 21 1010.3 1009.0 0.0
25/11:00am 30.8 24.3 -5.7 9 16.0 SSE 20 32 11 17 1010.6 1009.3 0.0
25/10:30am 29.6 23.2 -5.2 10 15.3 SSE 20 30 11 16 1010.7 1009.4 0.0
25/10:00am 29.4 23.0 -5.4 10 15.2 SSE 20 30 11 16 1010.8 1009.5 0.0
25/09:30am 26.7 19.9 -5.0 12 13.6 SSE 22 30 12 16 1010.8 1009.5 0.0
25/09:00am 25.3 19.1 -5.1 13 12.9 SE 19 30 10 16 1010.8 1009.5 0.0
25/08:30am 23.7 17.5 -4.4 15 11.9 SSE 19 24 10 13 1010.7 1009.4 0.0
25/08:00am 22.0 17.8 -4.1 17 10.9 SSE 9 13 5 7 1010.7 1009.4 0.0
25/07:30am 19.5 15.9 -4.0 20 9.6 SSE 6 7 3 4 1010.5 1009.2 0.0
25/07:00am 17.7 14.0 -4.3 22 8.8 SSE 6 7 3 4 1010.3 1009.0 0.0
25/06:30am 17.7 13.4 -4.9 21 8.9 SSE 9 11 5 6 1009.8 1008.5 0.0
25/06:00am 18.8 14.1 -4.6 20 9.4 S 11 15 6 8 1009.5 1008.2 0.0
25/05:30am 17.6 12.9 -5.0 21 8.9 S 11 13 6 7 1009.2 1007.9 0.0
25/05:00am 18.5 14.2 -4.9 20 9.3 S 9 13 5 7 1009.0 1007.7 0.0
25/04:30am 18.8 14.5 -4.6 20 9.4 S 9 9 5 5 1008.7 1007.4 0.0
25/04:00am 19.1 14.8 -4.4 20 9.5 S 9 9 5 5 1008.5 1007.2 0.0
25/03:30am 20.1 16.2 -4.9 18 10.1 S 7 9 4 5 1008.5 1007.2 0.0
25/03:00am 20.4 16.5 -4.7 18 10.2 S 7 9 4 5 1008.7 1007.4 0.0
25/02:30am 21.0 16.8 -4.2 18 10.4 S 9 11 5 6 1008.8 1007.5 0.0
25/02:00am 21.1 16.9 -4.1 18 10.5 S 9 11 5 6 1009.0 1007.7 0.0
25/01:30am 21.8 17.6 -4.3 17 10.9 S 9 11 5 6 1009.1 1007.8 0.0
25/01:00am 23.0 18.4 -4.1 16 11.5 S 11 13 6 7 1009.2 1007.9 0.0
25/12:30am 23.5 19.0 -2.9 17 11.5 S 11 13 6 7 1009.4 1008.1 0.0
25/12:00am 24.5 19.9 -3.8 15 12.2 S 11 13 6 7 1009.3 1008.0 0.0
 
Date/Time
EST
Temp
°C
App
Temp
°C
Dew
Point
°C
Rel
Hum
%
Delta-T
°C
Wind Press
QNH
hPa
Press
MSL
hPa
Rain since
9am
mm
Dir  Spd
km/h
Gust
km/h
Spd
kts
Gust
kts
24/11:30pm 25.5 20.6 -3.0 15 12.6 S 13 17 7 9 1009.2 1007.9 0.0
24/11:00pm 26.3 21.4 -3.3 14 13.1 S 13 17 7 9 1009.1 1007.8 0.0
24/10:30pm 26.1 21.7 -2.5 15 12.8 S 11 15 6 8 1009.1 1007.8 0.0
24/10:00pm 26.5 22.2 -1.3 16 12.8 S 11 13 6 7 1008.9 1007.6 0.0
24/09:30pm 26.3 22.0 -1.5 16 12.7 SSW 11 13 6 7 1008.5 1007.2 0.0
24/09:00pm 28.0 24.0 -2.0 14 13.8 S 9 11 5 6 1008.4 1007.1 0.0
24/08:30pm 28.9 24.9 -2.3 13 14.3 S 9 11 5 6 1008.0 1006.7 0.0
24/08:00pm 30.4 26.4 -2.2 12 15.2 S 9 13 5 7 1007.6 1006.2 0.0
24/07:30pm 31.8 27.6 -3.5 10 16.2 S 9 15 5 8 1007.3 1005.9 0.0
24/07:00pm 33.6 28.5 -2.2 10 17.1 S 15 20 8 11 1007.0 1005.6 0.0
24/06:30pm 34.7 28.7 -2.8 9 17.8 S 19 24 10 13 1006.7 1005.3 0.0
24/06:00pm 35.5 29.0 -2.2 9 18.2 S 22 30 12 16 1006.6 1005.2 0.0
24/05:30pm 35.9 29.5 -1.9 9 18.4 SSW 22 28 12 15 1006.5 1005.1 0.0
24/05:00pm 36.3 30.3 -1.6 9 18.6 SSW 20 32 11 17 1006.6 1005.2 0.0
24/04:30pm 36.2 30.2 -1.7 9 18.5 SSE 20 28 11 15 1006.7 1005.3 0.0
24/04:00pm 35.5 29.6 -2.2 9 18.2 SSE 19 32 10 17 1006.9 1005.5 0.0
24/03:30pm 35.8 29.9 -2.0 9 18.3 SSE 19 32 10 17 1007.3 1005.9 0.0
24/03:00pm 36.0 30.2 -1.8 9 18.4 S 19 28 10 15 1007.5 1006.1 0.0
24/02:30pm 35.2 29.1 -2.4 9 18.0 SSE 20 28 11 15 1008.0 1006.7 0.0
24/02:00pm 36.0 30.2 -1.8 9 18.4 S 19 30 10 16 1008.5 1007.2 0.0
24/01:30pm 35.5 30.2 -0.8 10 17.9 S 17 32 9 17 1008.9 1007.6 0.0
24/01:00pm 34.2 28.8 -1.7 10 17.3 S 17 24 9 13 1009.5 1008.2 0.0
24/12:30pm 34.1 27.9 -0.5 11 17.0 S 22 32 12 17 1009.9 1008.6 0.0
24/12:00pm 33.2 26.7 0.0 12 16.4 S 24 35 13 19 1010.2 1008.9 0.0
24/11:30am 32.8 26.8 0.8 13 15.9 SSE 22 33 12 18 1010.8 1009.5 0.0
24/11:00am 31.7 25.7 1.0 14 15.2 S 22 32 12 17 1011.3 1010.0 0.0
24/10:30am 30.7 24.2 0.2 14 14.8 SSE 24 33 13 18 1011.5 1010.2 0.0
24/10:00am 29.8 22.9 0.4 15 14.2 SSE 26 37 14 20 1011.7 1010.4 0.0
24/09:30am 28.0 21.2 0.7 17 13.1 SSE 26 35 14 19 1011.6 1010.3 0.0
24/09:00am 27.3 20.5 0.9 18 12.7 SSE 26 37 14 20 1011.4 1010.1 0.0
24/08:30am 25.9 19.1 0.5 19 12.0 SSE 26 35 14 19 1010.8 1009.5 0.0
24/08:00am 25.3 19.0 1.4 21 11.4 SSE 24 35 13 19 1010.9 1009.6 0.0
24/07:30am 24.4 18.8 1.3 22 10.9 SSE 20 28 11 15 1010.7 1009.4 0.0
24/07:00am 23.8 18.1 0.8 22 10.8 SSE 20 28 11 15 1010.4 1009.1 0.0
24/06:30am 23.9 18.7 0.3 21 10.9 SSE 17 28 9 15 1010.3 1009.0 0.0
24/06:00am 24.5 18.7 0.1 20 11.3 SSE 20 32 11 17 1010.0 1008.7 0.0
24/05:30am 25.0 18.8 -0.2 19 11.7 SSE 22 32 12 17 1009.8 1008.5 0.0
24/05:00am 25.5 18.5 -0.5 18 12.0 SSE 26 37 14 20 1009.6 1008.3 0.0
24/04:30am 25.9 19.7 -0.2 18 12.2 SSE 22 33 12 18 1009.5 1008.2 0.0
24/04:00am 26.6 20.4 -0.4 17 12.6 SSE 22 33 12 18 1009.4 1008.1 0.0
24/03:30am 27.2 21.1 0.1 17 12.8 S 22 35 12 19 1009.3 1008.0 0.0
24/03:00am 27.8 21.0 0.5 17 13.1 SSE 26 35 14 19 1009.2 1007.9 0.0
24/02:30am 28.3 21.9 0.9 17 13.2 S 24 30 13 16 1009.4 1008.1 0.0
24/02:00am 28.9 21.8 1.4 17 13.5 SSE 28 39 15 21 1009.5 1008.2 0.0
24/01:30am 29.3 22.6 1.7 17 13.6 SSE 26 35 14 19 1009.8 1008.5 0.0
24/01:00am 29.6 23.5 2.8 18 13.5 S 24 32 13 17 1009.8 1008.5 0.0
24/12:30am 30.2 24.1 2.5 17 13.9 S 24 33 13 18 1010.1 1008.8 0.0
24/12:00am 30.6 25.5 2.8 17 14.1 SSE 19 24 10 13 1010.2 1008.9 0.0
 
Date/Time
EST
Temp
°C
App
Temp
°C
Dew
Point
°C
Rel
Hum
%
Delta-T
°C
Wind Press
QNH
hPa
Press
MSL
hPa
Rain since
9am
mm
Dir  Spd
km/h
Gust
km/h
Spd
kts
Gust
kts
23/11:30pm 31.2 25.4 2.4 16 14.6 S 22 32 12 17 1010.0 1008.7 0.0
23/11:00pm 31.7 26.4 2.8 16 14.8 S 20 33 11 18 1009.9 1008.6 0.0
23/10:30pm 32.3 26.7 3.3 16 15.0 S 22 32 12 17 1009.6 1008.3 0.0
23/10:00pm 33.0 27.1 3.9 16 15.3 S 24 35 13 19 1009.2 1007.9 0.0
23/09:30pm 33.5 27.7 4.2 16 15.5 S 24 32 13 17 1008.9 1007.6 0.0
23/09:00pm 34.3 28.6 4.9 16 15.8 S 24 32 13 17 1008.4 1007.1 0.0
23/08:30pm 34.7 29.8 5.2 16 15.9 S 20 28 11 15 1008.0 1006.7 0.0

Other formats

Comma delimited format used in spreadsheet applications
http://www.bom.gov.au/fwo/IDQ60801/IDQ60801.94344.axf

JavaScript Object Notation format (JSON) in row-major order
http://www.bom.gov.au/fwo/IDQ60801/IDQ60801.94344.json

Data quality

Most of these data are generated automatically and are frequently updated. Quality checks on data are not normally performed. It is possible for incorrect values to appear. Refer to information at About Latest Weather Observations and please check the disclaimer before using these data.